CO37 weather

St Joseph Hospital Heliport
Denver, Colorado, United States

Public forecast

Using degrees Fahrenheit for public forecast. Weather courtesy of forecast.io.

Closest aviation weather report (METAR) to St Joseph Hospital Heliport

Closest report is Buckley Air Force Base, 10.4 nm (19.2 km) ESE. Retrieved 2019/10/19 12:58 UTC (18 minutes ago):

KBKF 191258Z COR 19007KT 10SM FEW050 M01/M07 A2995 RMK AO2A SLP133 T10101070 COR 1300

Closest aviation forecast (TAF) to St Joseph Hospital Heliport

Closest forecast is Buckley Air Force Base, 10.4 nm (19.2 km) ESE. Retrieved 2019/10/19 09:06 UTC (4 hours ago):

TAF KBKF 190900Z 1909/2015 21009KT 9999 SKC QNH2981INS BECMG 1920/1921 35012KT 9999 SCT100 QNH2970INS BECMG 2005/2006 20012G20KT 9999 SCT120 520009 QNH2963INS TEMPO 2007/2015 27030G40KT 530009 TX17/1923Z TNM01/1913Z